createdAt,value
2018-09-20T00:01:15.164Z,19.00
2018-09-20T00:03:44.345Z,19.00
2018-09-20T00:06:13.432Z,19.10
2018-09-20T00:08:42.535Z,19.10
2018-09-20T00:11:11.767Z,19.10
2018-09-20T00:13:40.831Z,19.00
2018-09-20T00:16:09.934Z,19.10
2018-09-20T00:18:38.968Z,19.10
2018-09-20T00:21:07.988Z,19.10
2018-09-20T00:23:37.120Z,19.10
2018-09-20T00:26:06.520Z,19.10
2018-09-20T00:28:35.608Z,19.10
2018-09-20T00:31:04.610Z,19.10
2018-09-20T00:33:33.588Z,19.00
2018-09-20T00:36:02.601Z,19.00
2018-09-20T00:38:31.682Z,19.00
2018-09-20T00:41:00.673Z,18.90
2018-09-20T00:43:29.756Z,18.60
2018-09-20T00:45:58.937Z,18.50
2018-09-20T00:48:28.019Z,18.50
2018-09-20T00:50:57.123Z,18.50
2018-09-20T00:53:26.265Z,18.60
2018-09-20T00:55:55.427Z,18.50
2018-09-20T00:58:24.417Z,18.50
2018-09-20T01:00:53.388Z,18.30
2018-09-20T01:03:22.596Z,18.30
2018-09-20T01:05:51.724Z,18.40
2018-09-20T01:08:20.798Z,18.40
2018-09-20T01:10:49.988Z,18.30
2018-09-20T01:13:19.084Z,18.20
2018-09-20T01:15:48.060Z,18.10
2018-09-20T01:18:17.111Z,18.20
2018-09-20T01:20:46.164Z,18.20
2018-09-20T01:23:15.048Z,18.20
2018-09-20T01:25:44.150Z,18.10
2018-09-20T01:28:13.039Z,18.00
2018-09-20T01:30:42.180Z,17.90
2018-09-20T01:33:11.232Z,17.80
2018-09-20T01:35:40.431Z,17.70
2018-09-20T01:38:09.519Z,17.50
2018-09-20T01:40:38.603Z,17.50
2018-09-20T01:43:07.750Z,17.40
2018-09-20T01:45:36.832Z,17.50
2018-09-20T01:48:06.101Z,17.60
2018-09-20T01:50:35.300Z,17.70
2018-09-20T01:53:04.405Z,17.60
2018-09-20T01:55:33.518Z,17.60
2018-09-20T01:58:02.575Z,17.70
2018-09-20T02:00:31.684Z,17.80
2018-09-20T02:03:00.718Z,17.80
2018-09-20T02:05:29.784Z,17.80
2018-09-20T02:07:58.792Z,17.80
2018-09-20T02:10:27.852Z,17.60
2018-09-20T02:12:56.856Z,17.50
2018-09-20T02:15:25.964Z,17.40
2018-09-20T02:17:55.048Z,17.40
2018-09-20T02:20:24.279Z,17.30
2018-09-20T02:22:53.331Z,17.40
2018-09-20T02:25:22.344Z,17.50
2018-09-20T02:27:51.332Z,17.60
2018-09-20T02:30:20.512Z,17.60
2018-09-20T02:32:49.644Z,17.70
2018-09-20T02:35:18.872Z,17.70
2018-09-20T02:37:47.913Z,17.70
2018-09-20T02:40:17.133Z,17.50
2018-09-20T02:42:46.188Z,17.60
2018-09-20T02:45:15.208Z,17.60
2018-09-20T02:47:44.186Z,17.60
2018-09-20T02:50:13.176Z,17.30
2018-09-20T02:52:42.269Z,17.20
2018-09-20T02:55:11.372Z,17.20
2018-09-20T02:57:40.372Z,17.10
2018-09-20T03:00:09.368Z,17.00
2018-09-20T03:02:38.443Z,17.10
2018-09-20T03:05:07.532Z,17.00
2018-09-20T03:07:36.604Z,16.70
2018-09-20T03:10:05.768Z,16.80
2018-09-20T03:12:34.840Z,16.60
2018-09-20T03:15:03.877Z,16.70
2018-09-20T03:17:32.896Z,16.70
2018-09-20T03:20:01.940Z,16.70
2018-09-20T03:22:31.028Z,16.80
2018-09-20T03:24:59.976Z,16.90
2018-09-20T03:27:28.974Z,16.70
2018-09-20T03:29:58.053Z,16.60
2018-09-20T03:32:26.992Z,16.50
2018-09-20T03:34:56.069Z,16.50
2018-09-20T03:37:25.138Z,16.50
2018-09-20T03:39:54.131Z,16.50
2018-09-20T03:42:23.120Z,16.40
2018-09-20T03:44:52.134Z,16.40
2018-09-20T03:47:21.167Z,16.20
2018-09-20T03:49:50.205Z,16.10
2018-09-20T03:52:19.305Z,16.10
2018-09-20T03:54:48.389Z,16.30
2018-09-20T03:57:17.613Z,16.40
2018-09-20T03:59:46.735Z,16.50
2018-09-20T04:02:15.676Z,16.50
2018-09-20T04:04:44.672Z,16.60
2018-09-20T04:07:13.868Z,16.50
2018-09-20T04:09:42.944Z,16.50
2018-09-20T04:12:11.977Z,16.30
2018-09-20T04:14:41.052Z,16.30
2018-09-20T04:17:10.250Z,16.20
2018-09-20T04:19:39.348Z,16.30
2018-09-20T04:22:08.556Z,16.10
2018-09-20T04:24:37.652Z,16.20
2018-09-20T04:27:06.802Z,16.30
2018-09-20T04:29:35.948Z,16.20
2018-09-20T04:32:05.088Z,16.20
2018-09-20T04:34:34.132Z,16.20
2018-09-20T04:37:03.165Z,16.20
2018-09-20T04:39:32.184Z,16.20
2018-09-20T04:42:01.194Z,16.00
2018-09-20T04:44:30.208Z,16.00
2018-09-20T04:46:59.316Z,15.90
2018-09-20T04:49:28.305Z,15.90
2018-09-20T04:51:57.384Z,15.90
2018-09-20T04:54:26.592Z,15.90
2018-09-20T04:56:57.128Z,15.80
2018-09-20T04:59:27.605Z,15.70
2018-09-20T05:01:57.803Z,15.70
2018-09-20T05:04:26.945Z,15.80
2018-09-20T05:06:55.831Z,15.80
2018-09-20T05:09:25.086Z,15.80
2018-09-20T05:11:54.124Z,15.90
2018-09-20T05:14:23.276Z,15.70
2018-09-20T05:16:52.433Z,15.70
2018-09-20T05:19:21.493Z,15.70
2018-09-20T05:21:50.645Z,15.70
2018-09-20T05:24:20.405Z,15.70
2018-09-20T05:26:49.533Z,15.70
2018-09-20T05:29:18.511Z,15.70
2018-09-20T05:31:47.484Z,15.70
2018-09-20T05:34:16.750Z,15.50
2018-09-20T05:36:45.904Z,15.50
2018-09-20T05:39:14.884Z,15.60
2018-09-20T05:41:43.966Z,15.60
2018-09-20T05:44:13.040Z,15.50
2018-09-20T05:46:42.736Z,15.40
2018-09-20T05:49:11.768Z,15.50
2018-09-20T05:51:40.786Z,15.60
2018-09-20T05:54:09.708Z,15.50
2018-09-20T05:56:38.767Z,15.40
2018-09-20T05:59:07.913Z,15.30
2018-09-20T06:01:37.055Z,15.30
2018-09-20T06:04:06.145Z,15.30
2018-09-20T06:06:35.244Z,15.30
2018-09-20T06:09:05.014Z,15.40
2018-09-20T06:11:34.074Z,15.40
2018-09-20T06:14:03.028Z,15.40
2018-09-20T06:16:32.025Z,15.40
2018-09-20T06:19:01.112Z,15.50
2018-09-20T06:21:30.221Z,15.50
2018-09-20T06:23:59.381Z,15.50
2018-09-20T06:26:28.765Z,15.20
2018-09-20T06:28:57.863Z,15.20
2018-09-20T06:31:26.893Z,15.30
2018-09-20T06:33:55.996Z,15.40
2018-09-20T06:36:25.119Z,15.50
2018-09-20T06:38:54.284Z,15.50
2018-09-20T06:41:23.411Z,15.30
2018-09-20T06:43:52.669Z,15.30
2018-09-20T06:46:21.872Z,15.40
2018-09-20T06:48:51.034Z,15.60
2018-09-20T06:51:20.285Z,15.70
2018-09-20T06:53:49.392Z,15.60
2018-09-20T06:56:18.476Z,15.70
2018-09-20T06:58:47.562Z,15.90
2018-09-20T07:01:16.690Z,15.90
2018-09-20T07:03:45.736Z,16.10
2018-09-20T07:06:14.927Z,16.10
2018-09-20T07:08:44.030Z,16.10
2018-09-20T07:11:13.121Z,16.20
2018-09-20T07:13:42.336Z,16.30
2018-09-20T07:16:11.651Z,16.30
2018-09-20T07:18:40.736Z,16.40
2018-09-20T07:21:09.853Z,16.50
2018-09-20T07:23:38.922Z,16.50
2018-09-20T07:26:08.052Z,16.50
2018-09-20T07:28:37.224Z,16.60
2018-09-20T07:31:06.725Z,16.60
2018-09-20T07:33:35.811Z,16.60
2018-09-20T07:36:05.463Z,16.60
2018-09-20T07:38:34.660Z,16.70
2018-09-20T07:41:03.805Z,16.80
2018-09-20T07:43:32.897Z,16.80
2018-09-20T07:46:02.062Z,16.90
2018-09-20T07:48:31.106Z,17.00
2018-09-20T07:51:00.219Z,17.00
2018-09-20T07:53:29.182Z,17.00
2018-09-20T07:55:58.200Z,17.10
2018-09-20T07:58:27.734Z,17.10
2018-09-20T08:00:56.745Z,17.20
2018-09-20T08:03:25.879Z,17.20
2018-09-20T08:05:54.836Z,17.20
2018-09-20T08:08:23.967Z,17.30
2018-09-20T08:10:53.051Z,17.40
2018-09-20T08:13:22.145Z,17.40
2018-09-20T08:15:51.268Z,17.40
2018-09-20T08:18:20.228Z,17.50
2018-09-20T08:20:49.313Z,17.50
2018-09-20T08:23:18.414Z,17.50
2018-09-20T08:25:47.553Z,17.60
2018-09-20T08:28:16.536Z,17.60
2018-09-20T08:30:45.588Z,17.70
2018-09-20T08:33:14.685Z,17.70
2018-09-20T08:35:43.880Z,17.80
2018-09-20T08:38:12.980Z,17.80
2018-09-20T08:40:42.236Z,17.90
2018-09-20T08:43:11.296Z,17.90
2018-09-20T08:45:40.274Z,18.00
2018-09-20T08:48:09.273Z,18.00
2018-09-20T08:50:38.350Z,18.10
2018-09-20T08:53:07.392Z,18.10
2018-09-20T08:55:36.572Z,18.20
2018-09-20T08:58:05.632Z,18.20
2018-09-20T09:00:34.800Z,18.30
2018-09-20T09:03:03.934Z,18.30
2018-09-20T09:05:33.120Z,18.40
2018-09-20T09:08:02.125Z,18.40
2018-09-20T09:10:31.116Z,18.50
2018-09-20T09:13:00.168Z,18.50
2018-09-20T09:15:29.315Z,18.60
2018-09-20T09:17:58.402Z,18.60
2018-09-20T09:20:27.338Z,18.70
2018-09-20T09:22:56.289Z,18.80
2018-09-20T09:25:25.379Z,18.80
2018-09-20T09:27:54.501Z,18.80
2018-09-20T09:30:23.606Z,18.90
2018-09-20T09:32:52.480Z,19.00
2018-09-20T09:35:21.578Z,19.00
2018-09-20T09:37:50.644Z,19.10
2018-09-20T09:40:19.832Z,19.10
2018-09-20T09:42:49.182Z,19.20
2018-09-20T09:45:18.252Z,19.20
2018-09-20T09:47:47.444Z,19.30
2018-09-20T09:50:16.524Z,19.30
2018-09-20T09:52:45.794Z,19.40
2018-09-20T09:55:15.194Z,19.40
2018-09-20T09:57:47.625Z,19.50
2018-09-20T10:00:16.804Z,19.50
2018-09-20T10:02:46.012Z,19.60
2018-09-20T10:05:14.968Z,19.60
2018-09-20T10:07:43.964Z,19.80
2018-09-20T10:10:13.128Z,19.80
2018-09-20T10:12:42.316Z,19.80
2018-09-20T10:15:11.553Z,19.90
2018-09-20T10:17:40.731Z,20.00
2018-09-20T10:20:09.896Z,20.10
2018-09-20T10:22:38.979Z,20.20
2018-09-20T10:25:08.207Z,20.30
2018-09-20T10:27:37.445Z,20.30
2018-09-20T10:30:07.169Z,20.40
2018-09-20T10:32:36.555Z,20.50
2018-09-20T10:35:06.208Z,20.60
2018-09-20T10:37:35.722Z,20.70
2018-09-20T10:40:05.605Z,20.80
2018-09-20T10:42:34.639Z,20.90
2018-09-20T10:45:03.840Z,21.00
2018-09-20T10:47:33.015Z,21.20
2018-09-20T10:50:02.139Z,21.30
2018-09-20T10:52:31.289Z,21.50
2018-09-20T10:55:00.347Z,21.50
2018-09-20T10:57:29.466Z,21.80
2018-09-20T10:59:58.566Z,21.90
2018-09-20T11:02:27.698Z,22.00
2018-09-20T11:04:56.952Z,22.20
2018-09-20T11:07:26.059Z,22.20
2018-09-20T11:09:55.330Z,22.40
2018-09-20T11:12:24.438Z,22.50
2018-09-20T11:14:53.586Z,22.60
2018-09-20T11:17:22.745Z,22.70
2018-09-20T11:19:51.712Z,22.70
2018-09-20T11:22:20.841Z,22.80
2018-09-20T11:24:49.904Z,22.80
2018-09-20T11:27:19.054Z,23.00
2018-09-20T11:29:48.226Z,23.00
2018-09-20T11:32:17.428Z,23.20
2018-09-20T11:34:46.619Z,23.30
2018-09-20T11:37:15.719Z,23.40
2018-09-20T11:39:44.973Z,23.50
2018-09-20T11:42:13.980Z,23.60
2018-09-20T11:44:43.081Z,23.70
2018-09-20T11:47:12.310Z,23.80
2018-09-20T11:49:41.489Z,23.90
2018-09-20T11:52:09.831Z,24.00
2018-09-20T11:54:37.964Z,24.10
2018-09-20T11:57:06.156Z,24.20
2018-09-20T11:59:34.337Z,24.30
2018-09-20T12:02:02.458Z,24.30
2018-09-20T12:04:30.489Z,24.30
2018-09-20T12:06:58.562Z,24.40
2018-09-20T12:09:26.928Z,24.50
2018-09-20T12:11:55.066Z,24.60
2018-09-20T12:14:23.177Z,24.60
2018-09-20T12:16:51.330Z,24.80
2018-09-20T12:19:19.412Z,24.90
2018-09-20T12:21:47.593Z,25.00
2018-09-20T12:24:17.313Z,25.00
2018-09-20T12:26:46.530Z,25.20
2018-09-20T12:29:15.880Z,25.30
2018-09-20T12:31:45.060Z,25.40
2018-09-20T12:34:14.127Z,25.40
2018-09-20T12:36:43.215Z,25.60
2018-09-20T12:39:13.401Z,25.60
2018-09-20T12:41:42.881Z,25.80
2018-09-20T12:44:10.934Z,25.90
2018-09-20T12:46:39.094Z,26.00
2018-09-20T12:49:07.218Z,26.00
2018-09-20T12:51:35.658Z,26.10
2018-09-20T12:54:04.790Z,26.20
2018-09-20T12:56:33.066Z,26.30
2018-09-20T12:59:01.165Z,26.40
2018-09-20T13:01:29.313Z,26.50
2018-09-20T13:03:57.484Z,26.60
2018-09-20T13:06:25.685Z,26.60
2018-09-20T13:08:54.718Z,26.70
2018-09-20T13:11:23.674Z,26.80
2018-09-20T13:13:52.800Z,26.90
2018-09-20T13:16:21.893Z,27.10
2018-09-20T13:18:50.893Z,27.10
2018-09-20T13:21:19.958Z,27.20
2018-09-20T13:23:48.832Z,27.20
2018-09-20T13:26:17.955Z,27.10
2018-09-20T13:28:47.332Z,27.20
2018-09-20T13:31:16.615Z,27.20
2018-09-20T13:33:45.633Z,27.30
2018-09-20T13:36:14.698Z,27.30
2018-09-20T13:38:44.108Z,27.30
2018-09-20T13:41:13.339Z,27.40
2018-09-20T13:43:42.871Z,27.30
2018-09-20T13:46:12.146Z,27.30
2018-09-20T13:48:41.440Z,27.30
2018-09-20T13:51:11.337Z,27.30
2018-09-20T13:53:40.704Z,27.30
2018-09-20T13:56:10.017Z,27.30
2018-09-20T13:58:39.398Z,27.40
2018-09-20T14:01:08.696Z,27.30
2018-09-20T14:03:38.058Z,27.40
2018-09-20T14:06:40.234Z,27.40
2018-09-20T14:09:11.176Z,27.40
2018-09-20T14:11:40.854Z,27.40
2018-09-20T14:14:09.924Z,27.50
2018-09-20T14:16:39.200Z,27.40
2018-09-20T14:19:08.408Z,27.50
2018-09-20T14:21:37.741Z,27.50
2018-09-20T14:24:07.056Z,27.50
2018-09-20T14:26:36.159Z,27.50
2018-09-20T14:29:05.272Z,27.50
2018-09-20T14:31:34.364Z,27.40
2018-09-20T14:34:03.441Z,27.50
2018-09-20T14:36:32.729Z,27.50
2018-09-20T14:39:01.866Z,27.60
2018-09-20T14:41:30.947Z,27.60
2018-09-20T14:43:59.928Z,27.60
2018-09-20T14:46:28.943Z,27.60
2018-09-20T14:48:59.510Z,27.60
2018-09-20T14:51:28.648Z,27.60
2018-09-20T14:53:57.649Z,27.60
2018-09-20T14:56:26.737Z,27.60
2018-09-20T14:58:55.826Z,27.60
2018-09-20T15:01:25.111Z,27.60
2018-09-20T15:03:54.216Z,27.60
2018-09-20T15:06:23.429Z,27.70
2018-09-20T15:08:52.535Z,27.70
2018-09-20T15:11:21.637Z,27.70
2018-09-20T15:13:50.740Z,27.70
2018-09-20T15:16:19.888Z,27.80
2018-09-20T15:18:50.110Z,27.80
2018-09-20T15:21:19.215Z,27.80
2018-09-20T15:23:48.294Z,27.80
2018-09-20T15:26:17.349Z,27.80
2018-09-20T15:28:46.444Z,27.90
2018-09-20T15:31:15.509Z,27.80
2018-09-20T15:33:44.596Z,27.80
2018-09-20T15:36:13.683Z,27.80
2018-09-20T15:38:42.722Z,27.80
2018-09-20T15:41:11.771Z,27.80
2018-09-20T15:43:40.863Z,27.80
2018-09-20T15:46:10.075Z,27.80
2018-09-20T15:48:39.222Z,27.80
2018-09-20T15:51:08.489Z,27.80
2018-09-20T15:53:37.527Z,27.80
2018-09-20T15:56:06.673Z,27.80
2018-09-20T15:58:35.652Z,27.80
2018-09-20T16:01:04.719Z,27.80
2018-09-20T16:03:33.758Z,27.70
2018-09-20T16:06:02.883Z,27.60
2018-09-20T16:08:31.900Z,27.60
2018-09-20T16:11:00.905Z,27.60
2018-09-20T16:13:29.999Z,27.50
2018-09-20T16:15:59.029Z,27.40
2018-09-20T16:18:28.040Z,27.40
2018-09-20T16:20:57.088Z,27.30
2018-09-20T16:23:26.223Z,27.20
2018-09-20T16:25:55.372Z,27.10
2018-09-20T16:28:34.026Z,27.10
2018-09-20T16:31:19.141Z,27.00
2018-09-20T16:35:28.278Z,26.90
2018-09-20T16:38:18.980Z,26.90
2018-09-20T16:40:50.118Z,26.80
2018-09-20T16:43:19.344Z,26.70
2018-09-20T16:45:48.545Z,26.70
2018-09-20T16:48:17.633Z,26.60
2018-09-20T16:50:46.730Z,26.60
2018-09-20T16:53:16.505Z,26.50
2018-09-20T16:55:45.524Z,26.50
2018-09-20T16:58:14.732Z,26.40
2018-09-20T17:00:43.928Z,26.40
2018-09-20T17:03:12.948Z,26.30
2018-09-20T17:05:42.122Z,26.20
2018-09-20T17:08:11.328Z,26.10
2018-09-20T17:10:40.565Z,26.10
2018-09-20T17:13:09.741Z,25.90
2018-09-20T17:15:38.796Z,25.90
2018-09-20T17:18:07.901Z,25.80
2018-09-20T17:20:37.123Z,25.60
2018-09-20T17:23:06.349Z,25.60
2018-09-20T17:25:35.759Z,25.50
2018-09-20T17:28:05.018Z,25.40
2018-09-20T17:30:34.200Z,25.40
2018-09-20T17:33:03.180Z,25.30
2018-09-20T17:35:33.079Z,25.30
2018-09-20T17:38:03.206Z,25.20
2018-09-20T17:40:33.888Z,25.10
2018-09-20T17:43:05.342Z,25.00
2018-09-20T17:45:34.441Z,25.00
2018-09-20T17:48:03.888Z,24.90
2018-09-20T17:50:32.995Z,24.80
2018-09-20T17:53:02.493Z,24.80
2018-09-20T17:55:33.131Z,24.70
2018-09-20T17:58:02.568Z,24.60
2018-09-20T18:00:31.831Z,24.60
2018-09-20T18:03:01.174Z,24.60
2018-09-20T18:05:30.310Z,24.60
2018-09-20T18:07:59.428Z,24.50
2018-09-20T18:10:28.449Z,24.50
2018-09-20T18:12:57.524Z,24.40
2018-09-20T18:15:26.542Z,24.40
2018-09-20T18:17:55.636Z,24.40
2018-09-20T18:20:24.911Z,24.30
2018-09-20T18:22:53.980Z,24.20
2018-09-20T18:25:23.072Z,24.30
2018-09-20T18:27:52.215Z,24.30
2018-09-20T18:30:21.292Z,24.30
2018-09-20T18:32:50.372Z,24.20
2018-09-20T18:35:19.640Z,24.10
2018-09-20T18:37:49.124Z,24.10
2018-09-20T18:40:18.494Z,24.10
2018-09-20T18:42:47.460Z,24.00
2018-09-20T18:45:16.487Z,24.00
2018-09-20T18:47:45.448Z,23.90
2018-09-20T18:50:14.645Z,23.90
2018-09-20T18:52:43.880Z,23.60
2018-09-20T18:55:13.796Z,23.60
2018-09-20T18:57:42.727Z,23.60
2018-09-20T19:00:11.859Z,23.60
2018-09-20T19:02:40.838Z,23.60
2018-09-20T19:05:09.960Z,23.50
2018-09-20T19:07:39.122Z,23.40
2018-09-20T19:10:08.236Z,23.10
2018-09-20T19:12:37.306Z,22.90
2018-09-20T19:15:05.853Z,22.80
2018-09-20T19:17:33.944Z,23.00
2018-09-20T19:20:02.076Z,23.10
2018-09-20T19:22:30.279Z,23.00
2018-09-20T19:24:58.319Z,22.90
2018-09-20T19:27:26.596Z,22.90
2018-09-20T19:29:54.689Z,22.70
2018-09-20T19:32:22.744Z,22.60
2018-09-20T19:34:50.897Z,22.30
2018-09-20T19:37:19.009Z,22.30
2018-09-20T19:39:47.035Z,22.30
2018-09-20T19:42:15.163Z,22.40
2018-09-20T19:44:43.318Z,22.60
2018-09-20T19:47:11.336Z,22.40
2018-09-20T19:49:39.619Z,22.40
2018-09-20T19:52:08.065Z,22.40
2018-09-20T19:54:36.223Z,22.30
2018-09-20T19:57:04.246Z,22.30
2018-09-20T19:59:32.459Z,22.10
2018-09-20T20:02:00.504Z,22.10
2018-09-20T20:04:28.701Z,22.00
2018-09-20T20:06:56.785Z,22.00
2018-09-20T20:09:24.947Z,21.90
2018-09-20T20:11:52.992Z,21.90
2018-09-20T20:14:21.188Z,22.20
2018-09-20T20:16:49.227Z,22.30
2018-09-20T20:19:17.427Z,22.30
2018-09-20T20:21:45.504Z,22.20
2018-09-20T20:24:13.557Z,22.00
2018-09-20T20:26:41.750Z,22.10
2018-09-20T20:29:09.816Z,22.20
2018-09-20T20:31:37.993Z,22.30
2018-09-20T20:34:06.236Z,22.20
2018-09-20T20:36:34.337Z,22.30
2018-09-20T20:39:02.408Z,22.30
2018-09-20T20:41:30.456Z,22.20
2018-09-20T20:43:58.650Z,22.20
2018-09-20T20:46:26.716Z,22.10
2018-09-20T20:48:54.750Z,22.10
2018-09-20T20:51:22.966Z,22.10
2018-09-20T20:53:51.019Z,22.00
2018-09-20T20:56:19.214Z,22.00
2018-09-20T20:58:47.391Z,22.10
2018-09-20T21:01:20.677Z,22.00
2018-09-20T21:03:49.517Z,21.70
2018-09-20T21:06:18.250Z,21.80
2018-09-20T21:08:46.791Z,21.80
2018-09-20T21:11:15.111Z,21.70
2018-09-20T21:13:43.203Z,21.60
2018-09-20T21:16:11.253Z,21.40
2018-09-20T21:18:39.582Z,21.60
2018-09-20T21:21:07.810Z,21.60
2018-09-20T21:23:35.880Z,21.50
2018-09-20T21:26:03.968Z,21.50
2018-09-20T21:28:32.061Z,21.50
2018-09-20T21:31:00.337Z,21.50
2018-09-20T21:33:28.435Z,21.50
2018-09-20T21:35:56.639Z,21.40
2018-09-20T21:38:24.818Z,21.30
2018-09-20T21:40:52.936Z,21.30
2018-09-20T21:43:21.055Z,21.30
2018-09-20T21:45:49.283Z,21.30
2018-09-20T21:48:17.605Z,21.30
2018-09-20T21:50:46.904Z,21.20
2018-09-20T21:53:16.040Z,21.20
2018-09-20T21:55:45.120Z,21.10
2018-09-20T21:58:14.223Z,21.10
2018-09-20T22:00:42.406Z,21.00
2018-09-20T22:03:11.385Z,21.00
2018-09-20T22:05:40.407Z,20.90
2018-09-20T22:08:08.512Z,20.90
2018-09-20T22:10:36.571Z,20.90
2018-09-20T22:13:05.630Z,20.90
2018-09-20T22:15:34.739Z,20.80
2018-09-20T22:18:03.800Z,20.80
2018-09-20T22:20:32.993Z,20.80
2018-09-20T22:23:02.100Z,20.70
2018-09-20T22:25:31.214Z,20.70
2018-09-20T22:27:59.321Z,20.80
2018-09-20T22:30:28.281Z,20.70
2018-09-20T22:32:56.388Z,20.70
2018-09-20T22:35:24.499Z,20.40
2018-09-20T22:37:53.500Z,20.20
2018-09-20T22:40:22.592Z,20.20
2018-09-20T22:42:51.694Z,20.30
2018-09-20T22:45:20.783Z,20.20
2018-09-20T22:47:49.874Z,20.30
2018-09-20T22:50:18.972Z,20.30
2018-09-20T22:52:48.051Z,20.30
2018-09-20T22:55:17.184Z,20.10
2018-09-20T22:57:46.365Z,20.10
2018-09-20T23:00:19.614Z,20.10
2018-09-20T23:02:48.753Z,20.00
2018-09-20T23:05:17.843Z,19.90
2018-09-20T23:07:46.956Z,20.00
2018-09-20T23:10:16.041Z,20.10
2018-09-20T23:12:45.389Z,20.10
2018-09-20T23:15:14.532Z,20.10
2018-09-20T23:17:43.528Z,20.10
2018-09-20T23:20:12.655Z,20.10
2018-09-20T23:22:41.807Z,20.00
2018-09-20T23:25:10.920Z,20.00
2018-09-20T23:27:40.031Z,19.90
2018-09-20T23:30:09.109Z,20.00
2018-09-20T23:32:38.234Z,19.90
2018-09-20T23:35:07.294Z,19.80
2018-09-20T23:37:36.300Z,19.80
2018-09-20T23:40:05.380Z,19.70
2018-09-20T23:42:34.349Z,19.60
2018-09-20T23:45:03.392Z,19.60
2018-09-20T23:47:32.520Z,19.50
2018-09-20T23:50:01.533Z,19.50
2018-09-20T23:52:30.535Z,19.60
2018-09-20T23:54:59.636Z,19.50
2018-09-20T23:57:28.774Z,19.40
2018-09-20T23:59:57.812Z,19.40
